createdAt,value
2022-09-23T00:01:08.294Z,2.10
2022-09-23T00:03:37.185Z,2.60
2022-09-23T00:06:10.805Z,2.55
2022-09-23T00:08:38.235Z,2.15
2022-09-23T00:11:13.722Z,2.55
2022-09-23T00:13:41.997Z,2.20
2022-09-23T00:16:11.101Z,2.33
2022-09-23T00:18:38.076Z,2.08
2022-09-23T00:21:12.082Z,2.33
2022-09-23T00:23:40.516Z,2.42
2022-09-23T00:26:08.636Z,2.33
2022-09-23T00:28:35.795Z,2.40
2022-09-23T00:31:06.932Z,2.63
2022-09-23T00:33:33.327Z,2.55
2022-09-23T00:36:01.872Z,2.50
2022-09-23T00:38:28.790Z,2.47
2022-09-23T00:40:55.289Z,2.60
2022-09-23T00:43:44.695Z,2.35
2022-09-23T00:46:39.883Z,2.53
2022-09-23T00:49:11.066Z,2.47
2022-09-23T00:51:41.883Z,2.60
2022-09-23T00:54:09.053Z,2.55
2022-09-23T00:56:36.926Z,2.78
2022-09-23T00:59:04.362Z,2.40
2022-09-23T01:01:30.801Z,2.70
2022-09-23T01:03:58.026Z,2.70
2022-09-23T01:06:24.511Z,3.15
2022-09-23T01:08:51.669Z,3.00
2022-09-23T01:11:18.673Z,2.60
2022-09-23T01:14:04.586Z,2.53
2022-09-23T01:16:43.505Z,2.67
2022-09-23T01:19:44.931Z,2.33
2022-09-23T01:22:40.296Z,2.50
2022-09-23T01:25:09.712Z,2.38
2022-09-23T01:28:26.719Z,2.47
2022-09-23T01:31:19.001Z,2.80
2022-09-23T01:34:02.134Z,2.50
2022-09-23T01:36:42.325Z,2.60
2022-09-23T01:39:16.564Z,2.70
2022-09-23T01:42:18.066Z,2.35
2022-09-23T01:44:51.782Z,2.35
2022-09-23T01:47:42.297Z,2.45
2022-09-23T01:50:35.221Z,2.45
2022-09-23T01:53:06.094Z,2.17
2022-09-23T01:55:37.859Z,2.40
2022-09-23T01:58:12.369Z,2.20
2022-09-23T02:00:43.829Z,2.40
2022-09-23T02:03:19.200Z,2.40
2022-09-23T02:05:51.463Z,2.20
2022-09-23T02:08:23.756Z,2.58
2022-09-23T02:11:04.556Z,2.50
2022-09-23T02:14:10.466Z,2.47
2022-09-23T02:16:44.418Z,2.47
2022-09-23T02:19:24.874Z,2.70
2022-09-23T02:22:03.044Z,2.63
2022-09-23T02:24:32.969Z,2.70
2022-09-23T02:27:09.401Z,2.05
2022-09-23T02:29:53.934Z,2.35
2022-09-23T02:32:36.208Z,2.00
2022-09-23T02:35:26.140Z,2.35
2022-09-23T02:38:09.509Z,2.30
2022-09-23T02:40:42.002Z,2.25
2022-09-23T02:43:32.064Z,2.00
2022-09-23T02:45:58.727Z,2.17
2022-09-23T02:48:46.530Z,2.22
2022-09-23T02:51:13.280Z,2.10
2022-09-23T02:53:39.964Z,2.28
2022-09-23T02:56:20.088Z,2.30
2022-09-23T02:58:52.342Z,2.10
2022-09-23T03:01:32.518Z,2.15
2022-09-23T03:04:25.763Z,2.20
2022-09-23T03:07:19.355Z,1.83
2022-09-23T03:09:57.284Z,2.10
2022-09-23T03:12:38.709Z,2.00
2022-09-23T03:15:33.281Z,2.03
2022-09-23T03:18:11.052Z,1.88
2022-09-23T03:20:46.320Z,1.95
2022-09-23T03:23:15.386Z,2.22
2022-09-23T03:25:45.711Z,2.30
2022-09-23T03:28:14.196Z,1.90
2022-09-23T03:30:43.578Z,1.90
2022-09-23T03:33:13.083Z,2.05
2022-09-23T03:36:07.642Z,2.25
2022-09-23T03:38:39.094Z,2.00
2022-09-23T03:41:09.452Z,2.30
2022-09-23T03:43:38.839Z,2.30
2022-09-23T03:46:07.150Z,2.05
2022-09-23T03:48:33.676Z,2.58
2022-09-23T03:51:13.558Z,2.25
2022-09-23T03:53:39.900Z,3.13
2022-09-23T03:56:06.242Z,2.60
2022-09-23T03:58:32.859Z,2.03
2022-09-23T04:00:59.404Z,2.30
2022-09-23T04:03:28.038Z,2.33
2022-09-23T04:05:54.357Z,2.20
2022-09-23T04:08:20.699Z,2.28
2022-09-23T04:10:49.056Z,1.80
2022-09-23T04:13:17.109Z,1.90
2022-09-23T04:15:43.454Z,2.00
2022-09-23T04:18:10.150Z,1.98
2022-09-23T04:20:39.178Z,2.00
2022-09-23T04:23:05.496Z,1.88
2022-09-23T04:25:32.296Z,2.00
2022-09-23T04:27:58.715Z,2.00
2022-09-23T04:30:25.063Z,2.15
2022-09-23T04:32:52.620Z,2.30
2022-09-23T04:35:18.963Z,1.98
2022-09-23T04:37:47.876Z,2.13
2022-09-23T04:40:14.388Z,2.33
2022-09-23T04:42:41.426Z,2.42
2022-09-23T04:45:08.224Z,2.15
2022-09-23T04:47:34.601Z,2.15
2022-09-23T04:50:00.983Z,2.30
2022-09-23T04:52:27.310Z,2.22
2022-09-23T04:54:53.647Z,2.20
2022-09-23T04:57:19.980Z,2.05
2022-09-23T04:59:47.020Z,2.03
2022-09-23T05:02:13.454Z,2.10
2022-09-23T05:04:40.677Z,2.28
2022-09-23T05:07:07.229Z,2.58
2022-09-23T05:09:39.890Z,2.30
2022-09-23T05:12:06.539Z,2.20
2022-09-23T05:14:32.885Z,2.30
2022-09-23T05:16:59.894Z,2.53
2022-09-23T05:19:26.266Z,2.20
2022-09-23T05:21:52.622Z,2.17
2022-09-23T05:24:19.255Z,2.33
2022-09-23T05:26:45.602Z,2.40
2022-09-23T05:29:11.945Z,2.33
2022-09-23T05:31:38.319Z,2.45
2022-09-23T05:34:05.573Z,2.50
2022-09-23T05:36:38.200Z,2.55
2022-09-23T05:39:06.326Z,2.50
2022-09-23T05:41:33.859Z,2.50
2022-09-23T05:44:00.433Z,2.35
2022-09-23T05:46:29.676Z,2.13
2022-09-23T05:49:02.124Z,2.47
2022-09-23T05:51:31.369Z,2.28
2022-09-23T05:53:59.016Z,2.33
2022-09-23T05:56:27.407Z,2.33
2022-09-23T05:58:55.661Z,2.50
2022-09-23T06:01:28.655Z,2.50
2022-09-23T06:03:57.386Z,2.20
2022-09-23T06:06:41.300Z,2.20
2022-09-23T06:09:13.349Z,2.05
2022-09-23T06:11:40.230Z,4.80
2022-09-23T06:14:14.713Z,8.95
2022-09-23T06:16:41.222Z,3.60
2022-09-23T06:19:07.689Z,3.20
2022-09-23T06:21:36.533Z,2.35
2022-09-23T06:24:03.245Z,2.55
2022-09-23T06:26:32.667Z,2.20
2022-09-23T06:28:59.776Z,2.10
2022-09-23T06:31:26.182Z,2.47
2022-09-23T06:34:01.952Z,2.38
2022-09-23T06:36:41.959Z,2.08
2022-09-23T06:39:09.987Z,2.58
2022-09-23T06:41:36.418Z,2.30
2022-09-23T06:44:03.059Z,2.20
2022-09-23T06:46:31.149Z,2.90
2022-09-23T06:48:57.655Z,2.70
2022-09-23T06:51:25.179Z,2.40
2022-09-23T06:53:51.585Z,2.40
2022-09-23T06:56:19.827Z,2.70
2022-09-23T06:58:58.252Z,2.40
2022-09-23T07:01:24.684Z,2.55
2022-09-23T07:03:51.907Z,2.88
2022-09-23T07:06:18.263Z,2.28
2022-09-23T07:08:46.985Z,2.88
2022-09-23T07:11:14.786Z,2.58
2022-09-23T07:13:42.165Z,2.72
2022-09-23T07:16:10.663Z,3.00
2022-09-23T07:18:37.802Z,2.65
2022-09-23T07:21:13.197Z,2.60
2022-09-23T07:23:39.574Z,2.40
2022-09-23T07:26:07.736Z,2.35
2022-09-23T07:28:36.331Z,2.67
2022-09-23T07:31:04.664Z,2.47
2022-09-23T07:33:33.403Z,1.92
2022-09-23T07:36:07.514Z,2.28
2022-09-23T07:38:34.127Z,2.30
2022-09-23T07:41:05.475Z,2.42
2022-09-23T07:43:32.771Z,2.08
2022-09-23T07:46:02.978Z,2.22
2022-09-23T07:48:34.161Z,1.92
2022-09-23T07:51:05.587Z,2.30
2022-09-23T07:53:32.371Z,1.88
2022-09-23T07:55:59.360Z,2.10
2022-09-23T07:58:25.882Z,2.20
2022-09-23T08:00:53.827Z,2.08
2022-09-23T08:03:20.365Z,2.25
2022-09-23T08:05:46.729Z,2.10
2022-09-23T08:08:14.046Z,1.90
2022-09-23T08:10:40.463Z,2.22
2022-09-23T08:13:06.869Z,2.00
2022-09-23T08:15:33.676Z,2.20
2022-09-23T08:18:00.786Z,2.15
2022-09-23T08:20:47.694Z,2.00
2022-09-23T08:23:16.110Z,1.95
2022-09-23T08:25:46.165Z,1.88
2022-09-23T08:28:16.715Z,2.00
2022-09-23T08:30:44.363Z,1.90
2022-09-23T08:33:14.255Z,2.00
2022-09-23T08:35:41.265Z,2.10
2022-09-23T08:38:08.475Z,1.92
2022-09-23T08:40:41.889Z,1.70
2022-09-23T08:43:28.089Z,2.08
2022-09-23T08:45:57.261Z,1.90
2022-09-23T08:48:46.549Z,2.05
2022-09-23T08:51:17.157Z,1.83
2022-09-23T08:53:45.461Z,2.30
2022-09-23T08:56:17.325Z,2.05
2022-09-23T08:59:00.524Z,1.98
2022-09-23T09:01:29.859Z,2.10
2022-09-23T09:04:01.348Z,1.98
2022-09-23T09:06:41.908Z,1.85
2022-09-23T09:09:25.427Z,2.10
2022-09-23T09:12:00.269Z,1.90
2022-09-23T09:14:35.772Z,1.88
2022-09-23T09:17:10.172Z,2.17
2022-09-23T09:19:47.294Z,2.10
2022-09-23T09:22:21.224Z,2.28
2022-09-23T09:24:49.363Z,2.35
2022-09-23T09:27:15.783Z,2.10
2022-09-23T09:29:49.577Z,2.08
2022-09-23T09:32:47.234Z,2.28
2022-09-23T09:35:42.174Z,2.03
2022-09-23T09:38:09.071Z,1.95
2022-09-23T09:40:41.748Z,2.15
2022-09-23T09:43:08.188Z,1.83
2022-09-23T09:46:16.164Z,2.30
2022-09-23T09:49:03.291Z,2.30
2022-09-23T09:51:29.698Z,2.13
2022-09-23T09:54:17.039Z,2.58
2022-09-23T09:56:44.950Z,2.25
2022-09-23T09:59:23.390Z,2.40
2022-09-23T10:01:50.782Z,2.17
2022-09-23T10:04:33.820Z,2.40
2022-09-23T10:07:09.413Z,2.35
2022-09-23T10:09:37.710Z,2.33
2022-09-23T10:12:18.307Z,2.08
2022-09-23T10:14:46.817Z,2.38
2022-09-23T10:17:24.379Z,2.30
2022-09-23T10:20:00.181Z,2.47
2022-09-23T10:22:32.424Z,3.08
2022-09-23T10:25:08.241Z,2.70
2022-09-23T10:27:36.305Z,2.70
2022-09-23T10:30:21.744Z,2.95
2022-09-23T10:32:49.630Z,4.30
2022-09-23T10:35:22.518Z,2.83
2022-09-23T10:37:57.007Z,3.40
2022-09-23T10:40:48.128Z,2.92
2022-09-23T10:43:54.847Z,2.58
2022-09-23T10:46:45.710Z,2.23
2022-09-23T10:49:21.144Z,2.40
2022-09-23T10:52:11.978Z,2.08
2022-09-23T10:54:51.284Z,2.10
2022-09-23T10:57:36.438Z,2.60
2022-09-23T11:00:32.464Z,2.65
2022-09-23T11:03:25.235Z,2.50
2022-09-23T11:06:04.151Z,2.42
2022-09-23T11:08:50.872Z,2.30
2022-09-23T11:11:49.353Z,2.45
2022-09-23T11:14:42.903Z,2.20
2022-09-23T11:17:33.916Z,2.60
2022-09-23T11:20:11.905Z,2.45
2022-09-23T11:22:45.531Z,2.70
2022-09-23T11:25:24.824Z,2.60
2022-09-23T11:28:29.447Z,2.80
2022-09-23T11:31:21.223Z,2.40
2022-09-23T11:33:56.902Z,2.33
2022-09-23T11:36:30.932Z,2.00
2022-09-23T11:39:00.191Z,2.63
2022-09-23T11:41:46.709Z,2.45
2022-09-23T11:44:19.917Z,2.22
2022-09-23T11:46:59.331Z,2.15
2022-09-23T11:49:39.299Z,2.53
2022-09-23T11:52:19.468Z,2.72
2022-09-23T11:55:21.624Z,2.22
2022-09-23T11:57:53.538Z,2.65
2022-09-23T12:00:23.427Z,2.10
2022-09-23T12:03:06.418Z,2.50
2022-09-23T12:05:39.606Z,2.15
2022-09-23T12:08:14.667Z,2.70
2022-09-23T12:10:45.903Z,2.28
2022-09-23T12:13:27.094Z,2.35
2022-09-23T12:16:31.059Z,2.40
2022-09-23T12:19:22.354Z,2.10
2022-09-23T12:22:30.489Z,2.25
2022-09-23T12:25:18.432Z,2.38
2022-09-23T12:27:49.655Z,2.20
2022-09-23T12:30:26.685Z,2.25
2022-09-23T12:33:05.997Z,2.50
2022-09-23T12:35:39.260Z,2.55
2022-09-23T12:38:15.294Z,2.13
2022-09-23T12:40:43.482Z,2.58
2022-09-23T12:43:30.228Z,2.60
2022-09-23T12:46:26.098Z,2.67
2022-09-23T12:48:57.264Z,2.47
2022-09-23T12:51:25.544Z,2.30
2022-09-23T12:53:57.635Z,2.60
2022-09-23T12:56:48.407Z,2.22
2022-09-23T12:59:31.407Z,2.50
2022-09-23T13:02:11.157Z,2.20
2022-09-23T13:05:14.360Z,2.20
2022-09-23T13:07:45.379Z,2.03
2022-09-23T13:10:18.700Z,2.30
2022-09-23T13:12:46.658Z,2.15
2022-09-23T13:15:28.669Z,2.15
2022-09-23T13:18:20.652Z,2.22
2022-09-23T13:20:51.596Z,2.13
2022-09-23T13:23:30.292Z,2.47
2022-09-23T13:26:08.930Z,2.20
2022-09-23T13:28:53.715Z,2.25
2022-09-23T13:31:21.239Z,1.80
2022-09-23T13:33:54.023Z,2.47
2022-09-23T13:36:21.193Z,2.08
2022-09-23T13:38:48.225Z,2.00
2022-09-23T13:41:18.068Z,2.10
2022-09-23T13:43:58.625Z,2.33
2022-09-23T13:46:28.428Z,1.70
2022-09-23T13:48:55.722Z,2.10
2022-09-23T13:51:26.755Z,1.95
2022-09-23T13:54:04.412Z,1.95
2022-09-23T13:56:32.933Z,1.92
2022-09-23T13:59:23.548Z,2.00
2022-09-23T14:01:50.035Z,1.90
2022-09-23T14:04:24.906Z,2.28
2022-09-23T14:06:52.465Z,2.50
2022-09-23T14:09:23.343Z,2.13
2022-09-23T14:11:51.786Z,2.03
2022-09-23T14:14:18.449Z,1.80
2022-09-23T14:16:44.949Z,2.00
2022-09-23T14:19:20.954Z,1.98
2022-09-23T14:24:37.688Z,1.65
2022-09-23T14:27:07.042Z,1.92
2022-09-23T14:29:37.064Z,1.90
2022-09-23T14:32:13.394Z,2.00
2022-09-23T14:34:49.056Z,2.42
2022-09-23T14:37:37.518Z,2.25
2022-09-23T14:40:09.728Z,2.10
2022-09-23T14:42:43.434Z,2.05
2022-09-23T14:45:15.397Z,2.17
2022-09-23T14:47:49.772Z,2.00
2022-09-23T14:50:39.365Z,1.60
2022-09-23T14:53:46.820Z,2.05
2022-09-23T14:56:17.155Z,2.08
2022-09-23T14:58:58.216Z,1.70
2022-09-23T15:01:32.462Z,1.90
2022-09-23T15:04:22.093Z,2.08
2022-09-23T15:06:53.679Z,2.63
2022-09-23T15:09:26.939Z,2.40
2022-09-23T15:12:18.845Z,2.30
2022-09-23T15:14:51.239Z,1.90
2022-09-23T15:17:30.032Z,2.35
2022-09-23T15:20:00.685Z,2.10
2022-09-23T15:22:27.264Z,2.13
2022-09-23T15:24:55.107Z,2.55
2022-09-23T15:27:27.404Z,2.35
2022-09-23T15:29:54.109Z,2.42
2022-09-23T15:32:21.620Z,2.20
2022-09-23T15:34:51.508Z,1.85
2022-09-23T15:37:22.949Z,2.28
2022-09-23T15:39:49.366Z,2.20
2022-09-23T15:42:16.365Z,2.38
2022-09-23T15:44:42.743Z,2.10
2022-09-23T15:47:15.336Z,2.03
2022-09-23T15:49:45.964Z,2.30
2022-09-23T15:52:13.008Z,2.95
2022-09-23T15:54:39.865Z,2.80
2022-09-23T15:57:06.202Z,2.13
2022-09-23T15:59:35.391Z,2.38
2022-09-23T16:02:07.812Z,2.50
2022-09-23T16:04:38.222Z,2.53
2022-09-23T16:07:05.536Z,2.10
2022-09-23T16:09:32.180Z,2.38
2022-09-23T16:11:58.446Z,2.35
2022-09-23T16:14:24.852Z,2.53
2022-09-23T16:16:51.634Z,2.33
2022-09-23T16:19:18.119Z,2.47
2022-09-23T16:21:44.706Z,2.10
2022-09-23T16:24:18.806Z,2.40
2022-09-23T16:26:47.995Z,2.40
2022-09-23T16:29:14.700Z,2.22
2022-09-23T16:31:41.220Z,2.30
2022-09-23T16:34:07.668Z,2.88
2022-09-23T16:36:38.417Z,2.15
2022-09-23T16:39:07.759Z,2.70
2022-09-23T16:41:34.433Z,2.65
2022-09-23T16:44:04.753Z,2.50
2022-09-23T16:46:31.772Z,2.15
2022-09-23T16:48:59.131Z,2.15
2022-09-23T16:52:44.504Z,2.17
2022-09-23T16:55:15.485Z,2.38
2022-09-23T16:57:43.256Z,2.40
2022-09-23T17:07:44.342Z,2.28
2022-09-23T17:10:35.897Z,2.42
2022-09-23T17:13:02.257Z,2.08
2022-09-23T17:15:28.730Z,2.50
2022-09-23T17:17:55.074Z,2.25
2022-09-23T17:20:21.489Z,2.40
2022-09-23T17:22:48.201Z,2.17
2022-09-23T17:25:15.756Z,2.92
2022-09-23T17:27:42.132Z,2.55
2022-09-23T17:30:09.263Z,2.45
2022-09-23T17:32:35.696Z,2.47
2022-09-23T17:35:04.634Z,2.40
2022-09-23T17:37:32.172Z,2.65
2022-09-23T17:39:59.892Z,3.00
2022-09-23T17:42:26.383Z,3.25
2022-09-23T17:44:52.729Z,3.10
2022-09-23T17:47:19.070Z,2.95
2022-09-23T17:49:49.808Z,2.88
2022-09-23T17:52:17.402Z,2.85
2022-09-23T17:54:45.095Z,2.78
2022-09-23T17:57:12.391Z,3.15
2022-09-23T17:59:38.799Z,2.60
2022-09-23T18:02:05.368Z,2.90
2022-09-23T18:04:31.734Z,3.30
2022-09-23T18:06:58.084Z,3.10
2022-09-23T18:09:24.576Z,2.95
2022-09-23T18:11:50.914Z,3.30
2022-09-23T18:14:20.307Z,3.20
2022-09-23T18:16:52.050Z,3.20
2022-09-23T18:19:20.848Z,3.50
2022-09-23T18:21:50.531Z,3.40
2022-09-23T18:24:34.007Z,3.65
2022-09-23T18:27:01.428Z,3.40
2022-09-23T18:29:28.544Z,3.55
2022-09-23T18:31:54.988Z,3.22
2022-09-23T18:34:21.813Z,3.35
2022-09-23T18:36:48.221Z,3.55
2022-09-23T18:39:14.600Z,3.85
2022-09-23T18:41:41.327Z,3.50
2022-09-23T18:44:07.944Z,4.07
2022-09-23T18:46:34.355Z,4.45
2022-09-23T18:49:19.565Z,4.45
2022-09-23T18:51:52.204Z,4.47
2022-09-23T18:54:19.500Z,4.07
2022-09-23T18:56:46.365Z,4.82
2022-09-23T18:59:16.541Z,5.20
2022-09-23T19:01:45.702Z,4.70
2022-09-23T19:04:14.165Z,5.05
2022-09-23T19:06:40.535Z,4.55
2022-09-23T19:09:07.852Z,4.63
2022-09-23T19:11:38.036Z,4.75
2022-09-23T19:14:07.395Z,4.32
2022-09-23T19:16:35.154Z,4.82
2022-09-23T19:19:02.886Z,4.97
2022-09-23T19:21:30.343Z,4.50
2022-09-23T19:24:03.031Z,4.68
2022-09-23T19:26:37.340Z,5.03
2022-09-23T19:29:04.940Z,4.63
2022-09-23T19:31:34.419Z,5.75
2022-09-23T19:34:04.501Z,5.80
2022-09-23T19:36:33.595Z,5.53
2022-09-23T19:39:02.934Z,5.53
2022-09-23T19:41:35.372Z,6.28
2022-09-23T19:44:03.275Z,6.20
2022-09-23T19:46:31.048Z,6.10
2022-09-23T19:48:58.104Z,5.32
2022-09-23T19:51:24.512Z,5.30
2022-09-23T19:53:50.939Z,6.18
2022-09-23T19:56:18.110Z,5.75
2022-09-23T19:58:54.131Z,5.93
2022-09-23T20:03:48.347Z,5.45
2022-09-23T20:06:15.549Z,6.18
2022-09-23T20:08:43.371Z,6.97
2022-09-23T20:11:12.229Z,6.00
2022-09-23T20:13:40.280Z,6.18
2022-09-23T20:16:11.276Z,6.15
2022-09-23T20:18:38.594Z,6.78
2022-09-23T20:21:06.549Z,5.90
2022-09-23T20:23:33.307Z,6.60
2022-09-23T20:26:19.854Z,6.55
2022-09-23T20:28:46.807Z,6.55
2022-09-23T20:31:13.918Z,6.53
2022-09-23T20:33:41.496Z,6.95
2022-09-23T20:36:13.257Z,6.75
2022-09-23T20:38:40.498Z,7.57
2022-09-23T20:41:07.588Z,7.18
2022-09-23T20:43:34.520Z,6.80
2022-09-23T20:46:02.876Z,6.47
2022-09-23T20:48:30.777Z,6.68
2022-09-23T20:51:02.015Z,6.30
2022-09-23T20:53:28.436Z,6.35
2022-09-23T20:55:58.057Z,6.28
2022-09-23T20:58:29.954Z,6.32
2022-09-23T21:01:01.751Z,6.35
2022-09-23T21:03:32.318Z,7.25
2022-09-23T21:06:03.829Z,7.35
2022-09-23T21:08:31.590Z,6.78
2022-09-23T21:10:58.780Z,6.65
2022-09-23T21:13:25.149Z,6.25
2022-09-23T21:15:51.754Z,5.72
2022-09-23T21:18:22.260Z,6.20
2022-09-23T21:20:56.891Z,6.50
2022-09-23T21:23:28.444Z,6.57
2022-09-23T21:26:09.029Z,6.88
2022-09-23T21:28:37.240Z,6.78
2022-09-23T21:31:06.642Z,6.65
2022-09-23T21:33:33.638Z,7.43
2022-09-23T21:36:06.313Z,6.63
2022-09-23T21:38:37.317Z,6.88
2022-09-23T21:41:06.764Z,7.20
2022-09-23T21:43:35.302Z,6.55
2022-09-23T21:46:03.647Z,7.05
2022-09-23T21:48:32.098Z,7.55
2022-09-23T21:51:01.308Z,6.80
2022-09-23T21:53:29.627Z,7.03
2022-09-23T21:56:16.778Z,6.97
2022-09-23T21:58:46.568Z,7.00
2022-09-23T22:01:18.943Z,6.20
2022-09-23T22:03:50.842Z,7.28
2022-09-23T22:06:21.389Z,7.43
2022-09-23T22:08:52.633Z,7.43
2022-09-23T22:11:41.271Z,6.65
2022-09-23T22:14:11.427Z,7.05
2022-09-23T22:16:39.107Z,7.10
2022-09-23T22:19:07.083Z,7.32
2022-09-23T22:21:36.482Z,6.88
2022-09-23T22:24:04.583Z,7.07
2022-09-23T22:26:39.719Z,7.70
2022-09-23T22:29:26.530Z,7.13
2022-09-23T22:32:13.161Z,6.88
2022-09-23T22:34:51.367Z,6.80
2022-09-23T22:37:21.559Z,7.20
2022-09-23T22:39:47.995Z,6.53
2022-09-23T22:42:14.381Z,7.65
2022-09-23T22:44:41.051Z,8.55
2022-09-23T22:47:08.030Z,10.63
2022-09-23T22:49:34.951Z,10.93
2022-09-23T22:52:07.753Z,10.25
2022-09-23T22:54:34.819Z,8.35
2022-09-23T22:57:04.785Z,8.23
2022-09-23T22:59:31.259Z,7.43
2022-09-23T23:01:59.905Z,7.70
2022-09-23T23:04:26.952Z,7.78
2022-09-23T23:06:53.326Z,8.68
2022-09-23T23:09:19.659Z,8.52
2022-09-23T23:11:47.059Z,8.20
2022-09-23T23:14:16.130Z,7.47
2022-09-23T23:16:43.770Z,7.38
2022-09-23T23:19:13.350Z,6.88
2022-09-23T23:21:43.321Z,7.28
2022-09-23T23:24:17.100Z,6.68
2022-09-23T23:26:43.894Z,6.60
2022-09-23T23:29:12.247Z,6.90
2022-09-23T23:31:38.835Z,6.78
2022-09-23T23:34:08.278Z,7.15
2022-09-23T23:36:34.693Z,7.03
2022-09-23T23:39:01.189Z,6.72
2022-09-23T23:41:28.316Z,7.18
2022-09-23T23:43:57.768Z,6.82
2022-09-23T23:46:26.573Z,7.25
2022-09-23T23:48:54.040Z,6.55
2022-09-23T23:51:21.187Z,6.75
2022-09-23T23:53:48.246Z,6.70
2022-09-23T23:56:19.554Z,6.97
2022-09-23T23:58:46.084Z,6.88
